Time;durP1;ratioP1;P1;durP2;ratioP2;P2;SDS_P1;SDS_P2;PMS_P1;PMS_P2;Temp;Humidity;BMP_temperature;BMP_pressure;BME280_temperature;BME280_humidity;BME280_pressure;Samples;Min_cycle;Max_cycle;Signal;HPM_P1;HPM_P2
2023/01/23 00:00:09;;;;;;;2.00;2.00;;;16.20;63.90;;;;;;5098802;27;43419;-72
2023/01/23 00:02:38;;;;;;;1.87;1.87;;;16.20;63.80;;;;;;5106626;27;43985;-70
2023/01/23 00:05:07;;;;;;;1.80;1.80;;;16.30;63.50;;;;;;5100995;27;43949;-71
2023/01/23 00:07:35;;;;;;;1.70;1.70;;;16.40;63.20;;;;;;5099570;27;43893;-72
2023/01/23 00:10:05;;;;;;;1.83;1.83;;;16.40;63.20;;;;;;5104116;27;43425;-71
2023/01/23 00:12:33;;;;;;;1.90;1.90;;;16.40;63.20;;;;;;5086917;27;43551;-72
2023/01/23 00:15:01;;;;;;;1.63;1.63;;;16.30;63.20;;;;;;5106546;27;43897;-71
2023/01/23 00:17:29;;;;;;;1.70;1.70;;;16.30;63.50;;;;;;5104401;27;43438;-70
2023/01/23 00:19:58;;;;;;;1.70;1.70;;;16.30;63.40;;;;;;5104422;27;43411;-71
2023/01/23 00:22:26;;;;;;;1.60;1.60;;;16.30;63.40;;;;;;5107546;27;43438;-71
2023/01/23 00:24:54;;;;;;;1.60;1.60;;;16.30;63.50;;;;;;5097132;27;43946;-71
2023/01/23 00:27:23;;;;;;;1.70;1.70;;;16.20;63.40;;;;;;5100363;27;43430;-71
2023/01/23 00:29:52;;;;;;;1.80;1.80;;;16.20;63.50;;;;;;5085477;27;43494;-70
2023/01/23 00:32:20;;;;;;;1.70;1.70;;;16.20;63.60;;;;;;5102202;27;43388;-72
2023/01/23 00:34:48;;;;;;;1.90;1.90;;;16.20;63.70;;;;;;5093508;27;43916;-72
2023/01/23 00:37:16;;;;;;;1.70;1.70;;;16.20;63.60;;;;;;5079771;27;45151;-71
2023/01/23 00:39:44;;;;;;;1.83;1.83;;;16.20;63.60;;;;;;5081503;27;43744;-71
2023/01/23 00:42:12;;;;;;;1.50;1.50;;;16.20;63.70;;;;;;5102618;27;43310;-72
2023/01/23 00:44:41;;;;;;;1.60;1.60;;;16.20;63.70;;;;;;5103082;27;43904;-71
2023/01/23 00:47:09;;;;;;;1.70;1.70;;;16.20;63.70;;;;;;5107445;27;43484;-72
2023/01/23 00:49:40;;;;;;;1.60;1.60;;;16.20;63.90;;;;;;5100036;27;43985;-71
2023/01/23 00:52:08;;;;;;;1.70;1.70;;;16.20;64.00;;;;;;5102698;27;43463;-71
2023/01/23 00:54:37;;;;;;;1.60;1.60;;;16.30;63.70;;;;;;5084293;27;45604;-71
2023/01/23 00:57:04;;;;;;;1.60;1.60;;;16.40;63.30;;;;;;5088690;27;45015;-71
2023/01/23 00:59:33;;;;;;;1.70;1.70;;;16.40;63.00;;;;;;5088861;27;43900;-72
2023/01/23 01:02:02;;;;;;;1.47;1.47;;;16.40;63.00;;;;;;5103231;27;43501;-70
2023/01/23 01:04:31;;;;;;;1.53;1.53;;;16.40;63.20;;;;;;5084013;27;45430;-71
2023/01/23 01:07:01;;;;;;;1.63;1.63;;;16.30;63.30;;;;;;5087134;27;44028;-71
2023/01/23 01:09:29;;;;;;;1.50;1.50;;;16.30;63.20;;;;;;5107355;27;44252;-72
2023/01/23 01:11:57;;;;;;;1.53;1.53;;;16.30;63.30;;;;;;5100059;27;43444;-72
2023/01/23 01:14:25;;;;;;;1.60;1.60;;;16.30;63.30;;;;;;5101538;27;43903;-70
2023/01/23 01:16:53;;;;;;;1.70;1.70;;;16.30;63.50;;;;;;5100441;27;43449;-71
2023/01/23 01:19:22;;;;;;;1.70;1.70;;;16.20;63.40;;;;;;5082500;27;43435;-71
2023/01/23 01:21:50;;;;;;;1.50;1.50;;;16.20;63.60;;;;;;5084905;28;43571;-71
2023/01/23 01:24:21;;;;;;;1.60;1.60;;;16.20;63.70;;;;;;5097712;27;43924;-71
2023/01/23 01:26:48;;;;;;;1.60;1.60;;;16.20;63.50;;;;;;5103531;27;43431;-71
2023/01/23 01:29:16;;;;;;;1.60;1.60;;;16.20;63.60;;;;;;5102870;27;43389;-72
2023/01/23 01:31:44;;;;;;;1.40;1.40;;;16.20;63.60;;;;;;5087496;27;43977;-71
2023/01/23 01:34:12;;;;;;;1.60;1.60;;;16.20;63.70;;;;;;5069030;28;46320;-72
2023/01/23 01:36:42;;;;;;;1.53;1.53;;;16.20;63.70;;;;;;5096354;27;43393;-71
2023/01/23 01:39:10;;;;;;;1.40;1.40;;;16.20;63.80;;;;;;5102932;27;43470;-71
2023/01/23 01:41:38;;;;;;;1.53;1.53;;;16.20;64.00;;;;;;5101348;27;43484;-70
2023/01/23 01:44:06;;;;;;;1.60;1.60;;;16.30;63.80;;;;;;5079819;27;45750;-71
2023/01/23 01:46:34;;;;;;;1.43;1.43;;;16.40;63.40;;;;;;5087512;27;44520;-71
2023/01/23 01:49:06;;;;;;;1.50;1.50;;;16.40;63.00;;;;;;5077448;28;43332;-71
2023/01/23 01:51:36;;;;;;;1.50;1.50;;;16.40;62.90;;;;;;5088545;27;43965;-70
2023/01/23 01:54:11;;;;;;;1.50;1.50;;;16.40;63.00;;;;;;5069653;27;45978;-72
2023/01/23 01:56:43;;;;;;;1.60;1.60;;;16.30;63.20;;;;;;5081204;27;45491;-71
2023/01/23 01:59:11;;;;;;;1.47;1.47;;;16.30;63.20;;;;;;5083373;27;44052;-71
2023/01/23 02:01:39;;;;;;;1.30;1.30;;;16.30;63.20;;;;;;5086137;27;43447;-72
2023/01/23 02:04:07;;;;;;;1.50;1.50;;;16.30;63.30;;;;;;5098477;27;43608;-71
2023/01/23 02:06:35;;;;;;;1.33;1.33;;;16.30;63.40;;;;;;5101548;27;43471;-71
2023/01/23 02:09:04;;;;;;;1.60;1.60;;;16.20;63.30;;;;;;5104676;27;43476;-72
2023/01/23 02:11:34;;;;;;;1.50;1.50;;;16.20;63.50;;;;;;5082158;27;43481;-70
2023/01/23 02:14:01;;;;;;;1.50;1.50;;;16.20;63.70;;;;;;5085447;27;44578;-70
2023/01/23 02:16:31;;;;;;;1.50;1.50;;;16.20;63.60;;;;;;5099818;27;43474;-72
2023/01/23 02:19:00;;;;;;;1.30;1.30;;;16.20;63.60;;;;;;5080816;27;43412;-71
2023/01/23 02:21:28;;;;;;;1.60;1.60;;;16.20;63.60;;;;;;5083657;27;43681;-70
2023/01/23 02:24:11;;;;;;;1.57;1.57;;;16.20;63.70;;;;;;5084590;27;45582;-71
2023/01/23 02:26:42;;;;;;;1.33;1.33;;;16.20;63.70;;;;;;5082784;27;43717;-71
2023/01/23 02:29:11;;;;;;;1.53;1.53;;;16.20;63.70;;;;;;5082279;27;43982;-71
2023/01/23 02:31:48;;;;;;;1.40;1.40;;;16.10;63.70;;;;;;5084268;27;43610;-71
2023/01/23 02:34:16;;;;;;;1.43;1.43;;;16.10;64.30;;;;;;5078977;27;43891;-70
2023/01/23 02:36:46;;;;;;;1.37;1.37;;;16.20;63.70;;;;;;5079866;28;44469;-70
2023/01/23 02:39:14;;;;;;;1.50;1.50;;;16.20;63.70;;;;;;5076911;27;43418;-72
2023/01/23 02:41:45;;;;;;;1.50;1.50;;;16.10;63.60;;;;;;5077694;27;43557;-71
2023/01/23 02:44:15;;;;;;;1.60;1.60;;;16.10;64.50;;;;;;5077842;27;45416;-72
2023/01/23 02:46:47;;;;;;;1.37;1.37;;;16.10;63.80;;;;;;5096211;27;43383;-70
2023/01/23 02:49:15;;;;;;;1.40;1.40;;;16.10;63.90;;;;;;5085453;27;43443;-71
2023/01/23 02:51:43;;;;;;;1.60;1.60;;;16.20;63.70;;;;;;5083295;27;43499;-71
2023/01/23 02:54:11;;;;;;;1.50;1.40;;;16.30;63.30;;;;;;5103144;27;44012;-70
2023/01/23 02:56:40;;;;;;;1.40;1.40;;;16.40;62.90;;;;;;5103769;27;43972;-71
2023/01/23 03:01:56;;;;;;;1.37;1.37;;;16.40;62.80;;;;;;5089648;27;43567;-71
2023/01/23 03:04:24;;;;;;;1.37;1.37;;;16.40;63.20;;;;;;5090718;27;45455;-71
2023/01/23 03:06:52;;;;;;;1.70;1.70;;;16.30;63.20;;;;;;5088600;27;44792;-71
2023/01/23 03:09:21;;;;;;;1.13;1.13;;;16.30;63.10;;;;;;5108188;27;44137;-72
2023/01/23 03:11:52;;;;;;;1.40;1.40;;;16.30;63.20;;;;;;5088631;27;43933;-71
2023/01/23 03:14:22;;;;;;;1.30;1.30;;;16.30;63.30;;;;;;5085913;27;46051;-71
2023/01/23 03:16:52;;;;;;;1.40;1.40;;;16.20;63.30;;;;;;5089087;27;44634;-71
2023/01/23 03:19:22;;;;;;;1.30;1.30;;;16.20;63.50;;;;;;5084417;28;43430;-70
2023/01/23 03:21:51;;;;;;;1.47;1.47;;;16.20;63.70;;;;;;5090155;27;43922;-72
2023/01/23 03:24:19;;;;;;;1.40;1.40;;;16.20;63.60;;;;;;5109489;27;43760;-71
2023/01/23 03:26:47;;;;;;;1.37;1.37;;;16.20;63.60;;;;;;5109192;27;43375;-71
2023/01/23 03:32:05;;;;;;;1.53;1.53;;;16.10;63.50;;;;;;5082957;27;43558;-72
2023/01/23 03:34:33;;;;;;;1.40;1.40;;;16.10;63.70;;;;;;5081302;27;45671;-71
2023/01/23 03:37:02;;;;;;;1.33;1.33;;;16.10;63.70;;;;;;5088029;27;44992;-71
2023/01/23 03:42:18;;;;;;;1.50;1.50;;;16.10;63.60;;;;;;5084482;27;43526;-72
2023/01/23 03:44:47;;;;;;;1.30;1.30;;;16.10;63.60;;;;;;5093266;27;44999;-72
2023/01/23 03:47:17;;;;;;;1.27;1.27;;;16.10;63.70;;;;;;5084626;27;44360;-70
2023/01/23 03:49:45;;;;;;;1.40;1.40;;;16.10;63.70;;;;;;5086217;27;43500;-71
2023/01/23 03:52:13;;;;;;;1.40;1.40;;;16.10;63.80;;;;;;5086314;27;43541;-71
2023/01/23 03:54:43;;;;;;;1.40;1.40;;;16.10;63.90;;;;;;5090147;27;45957;-71
2023/01/23 03:57:11;;;;;;;1.40;1.40;;;16.10;63.90;;;;;;5107437;27;43533;-70
2023/01/23 03:59:48;;;;;;;1.50;1.50;;;16.20;63.70;;;;;;5108286;27;43422;-71
2023/01/23 04:02:20;;;;;;;1.40;1.40;;;16.30;63.30;;;;;;5086382;27;43476;-71
2023/01/23 04:04:48;;;;;;;1.40;1.40;;;16.40;62.90;;;;;;5076689;27;45448;-72
2023/01/23 04:07:17;;;;;;;1.40;1.40;;;16.40;62.80;;;;;;5088057;27;43376;-71
2023/01/23 04:09:45;;;;;;;1.30;1.30;;;16.40;62.90;;;;;;5082664;27;43447;-72
2023/01/23 04:12:13;;;;;;;1.40;1.40;;;16.30;63.10;;;;;;5086374;27;43691;-71
2023/01/23 04:14:44;;;;;;;1.47;1.47;;;16.30;63.20;;;;;;5079933;27;45806;-71
2023/01/23 04:17:14;;;;;;;1.40;1.40;;;16.30;63.10;;;;;;5090256;27;43392;-70
2023/01/23 04:19:43;;;;;;;1.30;1.30;;;16.30;63.20;;;;;;5080142;27;43649;-71
2023/01/23 04:22:11;;;;;;;1.50;1.50;;;16.30;63.30;;;;;;5103023;27;43546;-71
2023/01/23 04:24:45;;;;;;;1.33;1.33;;;16.20;63.30;;;;;;5103257;27;43846;-71
2023/01/23 04:27:13;;;;;;;1.53;1.53;;;16.20;63.50;;;;;;5085629;27;44728;-72
2023/01/23 04:29:41;;;;;;;1.60;1.50;;;16.10;63.60;;;;;;5083801;27;43474;-71
2023/01/23 04:32:09;;;;;;;1.47;1.47;;;16.10;63.50;;;;;;5081269;27;43641;-71
2023/01/23 04:34:45;;;;;;;1.47;1.47;;;16.10;63.50;;;;;;5078580;27;45566;-72
2023/01/23 04:37:14;;;;;;;1.60;1.60;;;16.10;63.60;;;;;;5083560;27;43493;-71
2023/01/23 04:39:42;;;;;;;1.57;1.57;;;16.10;63.60;;;;;;5078274;27;43862;-71
2023/01/23 04:42:11;;;;;;;1.30;1.30;;;16.10;63.70;;;;;;5084477;27;43500;-72
2023/01/23 04:44:50;;;;;;;1.30;1.30;;;16.10;63.80;;;;;;5075553;28;44019;-72
2023/01/23 04:47:36;;;;;;;1.40;1.40;;;16.10;63.90;;;;;;5086358;27;44000;-71
2023/01/23 04:50:10;;;;;;;1.53;1.53;;;16.20;63.80;;;;;;5072110;27;43577;-70
2023/01/23 04:52:41;;;;;;;1.60;1.60;;;16.30;63.40;;;;;;5072252;27;43502;-71
2023/01/23 04:55:10;;;;;;;1.60;1.60;;;16.30;63.10;;;;;;5093930;27;43920;-70
2023/01/23 04:57:38;;;;;;;1.60;1.60;;;16.30;63.20;;;;;;5101657;27;43421;-70
2023/01/23 05:00:27;;;;;;;1.87;1.77;;;16.20;63.20;;;;;;5084437;27;43442;-71
2023/01/23 05:02:57;;;;;;;2.50;2.30;;;16.20;63.40;;;;;;5082453;27;43451;-72
2023/01/23 05:05:27;;;;;;;2.63;2.43;;;16.20;63.50;;;;;;5073064;28;45436;-71
2023/01/23 05:07:59;;;;;;;2.77;2.67;;;16.20;63.40;;;;;;5077397;28;43409;-70
2023/01/23 05:10:28;;;;;;;2.40;2.20;;;16.20;63.50;;;;;;5065942;28;43583;-71
2023/01/23 05:13:00;;;;;;;3.40;3.10;;;16.20;63.60;;;;;;5091621;27;43415;-71
2023/01/23 05:15:28;;;;;;;2.80;2.60;;;16.10;63.60;;;;;;5093511;27;43615;-71
2023/01/23 05:17:57;;;;;;;3.30;2.90;;;16.10;63.70;;;;;;5083618;27;44555;-72
2023/01/23 05:20:27;;;;;;;3.53;3.00;;;16.10;63.90;;;;;;5079181;27;43373;-71
2023/01/23 05:23:00;;;;;;;5.40;3.40;;;16.00;63.70;;;;;;5083225;27;43412;-72
2023/01/23 05:25:37;;;;;;;4.23;3.17;;;16.10;63.80;;;;;;5084718;27;43925;-71
2023/01/23 05:28:05;;;;;;;3.83;3.27;;;16.10;63.80;;;;;;5082572;27;45320;-71
2023/01/23 05:30:34;;;;;;;3.40;3.10;;;16.00;63.80;;;;;;5072886;27;43368;-72
2023/01/23 05:33:16;;;;;;;3.80;3.47;;;16.10;63.90;;;;;;5071337;28;43883;-72
2023/01/23 05:35:45;;;;;;;4.70;3.63;;;16.00;63.80;;;;;;5071580;28;46109;-70
2023/01/23 05:38:14;;;;;;;5.23;3.53;;;16.00;64.10;;;;;;5070819;28;45166;-71
2023/01/23 05:40:43;;;;;;;5.90;3.70;;;16.00;64.00;;;;;;5073759;28;43450;-71
2023/01/23 05:43:13;;;;;;;3.93;3.50;;;16.20;63.80;;;;;;5089881;27;43487;-72
2023/01/23 05:46:00;;;;;;;4.43;3.53;;;16.30;63.40;;;;;;5088522;27;43499;-73
2023/01/23 05:48:38;;;;;;;5.17;3.40;;;16.30;63.10;;;;;;5073410;27;43420;-71
2023/01/23 05:51:11;;;;;;;3.47;3.27;;;16.30;63.20;;;;;;5081826;27;44032;-71
2023/01/23 05:53:39;;;;;;;4.70;3.43;;;16.20;63.20;;;;;;5102448;27;43549;-71
2023/01/23 05:56:08;;;;;;;4.27;3.40;;;16.20;63.60;;;;;;5084642;27;43836;-71
2023/01/23 05:58:47;;;;;;;3.60;3.30;;;16.20;63.40;;;;;;5087937;27;44678;-72
2023/01/23 06:01:24;;;;;;;5.63;3.87;;;16.20;63.40;;;;;;5079796;28;43826;-72
2023/01/23 06:04:11;;;;;;;4.80;3.60;;;16.20;63.50;;;;;;5096951;27;43407;-71
2023/01/23 06:06:58;;;;;;;3.30;3.10;;;16.10;63.40;;;;;;5083172;27;43903;-71
2023/01/23 06:09:27;;;;;;;4.23;3.50;;;16.10;64.20;;;;;;5081566;27;44687;-71
2023/01/23 06:11:55;;;;;;;4.70;3.43;;;16.10;63.60;;;;;;5085505;27;43490;-70
2023/01/23 06:14:23;;;;;;;3.93;3.30;;;16.10;63.50;;;;;;5084098;27;43446;-71
2023/01/23 06:16:51;;;;;;;5.00;3.17;;;16.10;63.50;;;;;;5080288;27;45300;-70
2023/01/23 06:19:21;;;;;;;3.87;3.57;;;16.10;63.50;;;;;;5084866;27;43431;-71
2023/01/23 06:21:49;;;;;;;3.67;3.40;;;16.10;63.50;;;;;;5082724;27;43433;-72
2023/01/23 06:24:19;;;;;;;3.67;3.30;;;16.10;63.50;;;;;;5079012;28;43862;-71
2023/01/23 06:26:48;;;;;;;4.00;3.70;;;16.10;63.60;;;;;;5082316;27;45540;-72
2023/01/23 06:29:17;;;;;;;3.33;3.03;;;16.10;63.70;;;;;;5086632;27;43482;-71
2023/01/23 06:31:46;;;;;;;4.13;3.43;;;16.00;63.50;;;;;;5084382;27;43434;-72
2023/01/23 06:34:15;;;;;;;3.57;3.33;;;16.10;63.60;;;;;;5078627;27;43574;-73
2023/01/23 06:36:53;;;;;;;3.53;3.10;;;16.10;63.60;;;;;;5083124;27;44042;-71
2023/01/23 06:39:22;;;;;;;3.80;3.40;;;16.10;63.50;;;;;;5079560;27;44898;-72
2023/01/23 06:41:52;;;;;;;2.90;2.70;;;16.10;63.60;;;;;;5064934;27;43997;-71
2023/01/23 06:44:22;;;;;;;3.90;3.50;;;16.10;63.60;;;;;;5100086;27;43451;-71
2023/01/23 06:46:52;;;;;;;3.47;3.17;;;16.00;63.80;;;;;;5080894;27;45440;-73
2023/01/23 06:49:22;;;;;;;3.50;3.17;;;16.10;63.90;;;;;;5081726;27;43423;-73
2023/01/23 06:51:50;;;;;;;3.53;3.23;;;16.20;63.60;;;;;;5099286;27;43469;-71
2023/01/23 06:54:18;;;;;;;3.30;3.03;;;16.30;63.20;;;;;;5072882;27;43504;-71
2023/01/23 06:56:48;;;;;;;3.70;3.40;;;16.30;62.90;;;;;;5087679;27;45762;-72
2023/01/23 06:59:20;;;;;;;3.00;2.80;;;16.30;62.90;;;;;;5078761;27;44645;-72
2023/01/23 07:01:48;;;;;;;3.40;3.20;;;16.30;63.10;;;;;;5078387;27;43685;-71
2023/01/23 07:04:23;;;;;;;3.50;3.20;;;16.20;63.30;;;;;;5081147;27;43444;-71
2023/01/23 07:06:52;;;;;;;3.50;3.30;;;16.20;63.10;;;;;;5083515;27;43819;-73
2023/01/23 07:09:20;;;;;;;3.40;3.20;;;16.20;63.30;;;;;;5084465;27;43404;-72
2023/01/23 07:12:05;;;;;;;3.00;2.80;;;16.20;63.30;;;;;;5082488;27;43392;-71
2023/01/23 07:14:33;;;;;;;3.17;2.97;;;16.10;63.30;;;;;;5076192;28;43426;-71
2023/01/23 07:17:02;;;;;;;3.40;3.10;;;16.10;63.50;;;;;;5086066;27;45946;-71
2023/01/23 07:19:31;;;;;;;3.10;3.00;;;16.10;63.70;;;;;;5076221;28;43891;-71
2023/01/23 07:22:01;;;;;;;3.80;3.50;;;16.00;63.60;;;;;;5081190;27;43426;-71
2023/01/23 07:24:31;;;;;;;3.00;2.80;;;16.10;63.60;;;;;;5086754;27;43606;-73
2023/01/23 07:26:59;;;;;;;2.70;2.60;;;16.10;63.60;;;;;;5090911;27;43870;-71
2023/01/23 07:29:28;;;;;;;3.17;2.97;;;16.10;63.60;;;;;;5090367;27;44047;-70
2023/01/23 07:31:58;;;;;;;2.87;2.67;;;16.10;63.60;;;;;;5089280;27;43342;-70
2023/01/23 07:34:25;;;;;;;3.43;3.23;;;16.00;63.70;;;;;;5091565;27;43495;-71
2023/01/23 07:36:53;;;;;;;3.37;3.10;;;16.10;63.80;;;;;;5102948;27;43599;-71
2023/01/23 07:39:21;;;;;;;3.10;2.90;;;16.00;63.80;;;;;;5100575;27;43373;-72
2023/01/23 07:41:49;;;;;;;3.23;3.03;;;16.10;63.70;;;;;;5096361;27;43435;-71
2023/01/23 07:44:19;;;;;;;2.80;2.60;;;16.30;63.40;;;;;;5082623;27;43562;-71
2023/01/23 07:46:48;;;;;;;2.97;2.77;;;16.30;63.10;;;;;;5108010;27;43906;-70
2023/01/23 07:49:16;;;;;;;2.97;2.77;;;16.30;63.00;;;;;;5105516;27;43951;-71
2023/01/23 07:51:44;;;;;;;3.03;2.83;;;16.30;63.20;;;;;;5090034;27;43386;-71
2023/01/23 07:54:12;;;;;;;2.73;2.63;;;16.20;63.10;;;;;;5084469;27;43533;-73
2023/01/23 07:56:40;;;;;;;2.77;2.67;;;16.20;63.30;;;;;;5082491;27;44333;-70
2023/01/23 07:59:08;;;;;;;2.50;2.40;;;16.20;63.10;;;;;;5104745;27;43549;-71
2023/01/23 08:01:35;;;;;;;2.80;2.60;;;16.20;63.30;;;;;;5107154;27;43339;-73
2023/01/23 08:04:05;;;;;;;2.50;2.40;;;16.20;63.30;;;;;;5105012;27;43458;-71
2023/01/23 08:06:33;;;;;;;2.67;2.57;;;16.20;63.40;;;;;;5098050;27;43705;-71
2023/01/23 08:09:01;;;;;;;3.03;2.83;;;16.20;63.40;;;;;;5081987;27;44728;-71
2023/01/23 08:11:29;;;;;;;2.93;2.77;;;16.10;63.50;;;;;;5099465;27;43453;-71
2023/01/23 08:13:59;;;;;;;2.70;2.60;;;16.10;63.40;;;;;;5089237;27;43467;-71
2023/01/23 08:16:27;;;;;;;2.67;2.57;;;16.10;64.10;;;;;;5082999;27;46183;-72
2023/01/23 08:18:54;;;;;;;2.40;2.30;;;16.10;63.50;;;;;;5102817;27;43471;-70
2023/01/23 08:21:24;;;;;;;2.80;2.70;;;16.10;63.50;;;;;;5105242;27;43416;-73
2023/01/23 08:23:52;;;;;;;2.57;2.47;;;16.10;63.50;;;;;;5082658;27;43560;-70
2023/01/23 08:26:20;;;;;;;2.80;2.70;;;16.10;63.50;;;;;;5104105;27;43822;-72
2023/01/23 08:28:47;;;;;;;2.27;2.17;;;16.10;63.60;;;;;;5102192;27;43475;-71
2023/01/23 08:31:15;;;;;;;2.90;2.70;;;16.10;63.90;;;;;;5104058;27;43386;-71
2023/01/23 08:33:43;;;;;;;2.60;2.50;;;16.10;63.60;;;;;;5099766;27;43876;-71
2023/01/23 08:36:12;;;;;;;2.73;2.63;;;16.30;63.30;;;;;;5086071;27;46256;-71
2023/01/23 08:38:41;;;;;;;2.90;2.77;;;16.30;62.90;;;;;;5095900;27;43550;-70
2023/01/23 08:41:11;;;;;;;2.43;2.33;;;16.40;62.80;;;;;;5079049;27;43462;-72
2023/01/23 08:43:40;;;;;;;2.67;2.57;;;16.30;62.80;;;;;;5089336;27;43510;-72
2023/01/23 08:46:08;;;;;;;2.57;2.47;;;16.30;63.00;;;;;;5101284;27;43607;-73
2023/01/23 08:48:36;;;;;;;2.90;2.80;;;16.30;63.20;;;;;;5102104;27;43477;-71
2023/01/23 08:51:06;;;;;;;2.60;2.40;;;16.30;62.60;;;;;;5095099;27;43364;-70
2023/01/23 08:53:34;;;;;;;2.23;2.13;;;16.30;63.20;;;;;;5086581;27;43511;-71
2023/01/23 08:56:06;;;;;;;2.70;2.60;;;16.20;63.10;;;;;;5103530;27;43892;-70
2023/01/23 08:58:34;;;;;;;2.50;2.40;;;16.20;63.20;;;;;;5081242;27;45465;-73
2023/01/23 09:01:02;;;;;;;2.70;2.60;;;16.20;63.30;;;;;;5094987;27;43472;-72
2023/01/23 09:03:30;;;;;;;2.70;2.60;;;16.20;63.50;;;;;;5096818;27;43351;-71
2023/01/23 09:06:00;;;;;;;2.70;2.60;;;16.10;63.30;;;;;;5106064;27;43943;-71
2023/01/23 09:08:28;;;;;;;2.67;2.57;;;16.10;63.30;;;;;;5106249;27;43538;-71
2023/01/23 09:11:00;;;;;;;2.50;2.40;;;16.10;63.40;;;;;;5104506;27;43331;-71
2023/01/23 09:13:29;;;;;;;2.10;2.00;;;16.10;63.40;;;;;;5108111;27;43400;-70
2023/01/23 09:15:57;;;;;;;2.83;2.73;;;16.10;63.50;;;;;;5100175;27;43925;-70
2023/01/23 09:18:25;;;;;;;2.67;2.57;;;16.10;63.50;;;;;;5106270;27;43463;-70
2023/01/23 09:20:53;;;;;;;2.67;2.57;;;16.10;63.80;;;;;;5093421;27;43375;-71
2023/01/23 09:23:21;;;;;;;2.53;2.43;;;16.10;63.80;;;;;;5100860;27;43618;-71
2023/01/23 09:25:49;;;;;;;2.43;2.33;;;16.20;63.40;;;;;;5099699;27;43598;-72
2023/01/23 09:28:17;;;;;;;2.60;2.50;;;16.30;63.20;;;;;;5104473;27;43582;-71
2023/01/23 09:30:46;;;;;;;2.27;2.20;;;16.30;63.10;;;;;;5097609;27;43444;-71
2023/01/23 09:33:15;;;;;;;2.43;2.33;;;16.20;63.10;;;;;;5098489;27;43449;-71
2023/01/23 09:35:45;;;;;;;2.33;2.27;;;16.20;63.30;;;;;;5101277;27;44755;-71
2023/01/23 09:38:12;;;;;;;2.10;2.10;;;16.20;63.50;;;;;;5101311;27;44026;-70
2023/01/23 09:40:45;;;;;;;2.47;2.37;;;16.20;63.30;;;;;;5094478;27;43394;-71
2023/01/23 09:43:15;;;;;;;2.50;2.40;;;16.20;63.30;;;;;;5104284;27;43386;-71
2023/01/23 09:45:47;;;;;;;2.63;2.53;;;16.20;64.20;;;;;;5105449;27;43611;-70
2023/01/23 09:48:19;;;;;;;2.13;2.13;;;16.10;63.40;;;;;;5081834;27;44556;-72
2023/01/23 09:50:53;;;;;;;2.47;2.37;;;16.10;63.50;;;;;;5094568;27;43402;-72
2023/01/23 09:53:22;;;;;;;2.27;2.17;;;16.10;63.50;;;;;;5098634;27;43418;-71
2023/01/23 09:55:53;;;;;;;2.37;2.27;;;16.10;63.70;;;;;;5103345;27;43852;-70
2023/01/23 09:58:26;;;;;;;2.20;2.20;;;16.10;63.50;;;;;;5100587;27;43384;-71
2023/01/23 10:00:55;;;;;;;2.47;2.47;;;16.10;63.60;;;;;;5095660;27;43442;-71
2023/01/23 10:03:24;;;;;;;2.30;2.23;;;16.10;63.60;;;;;;5100794;27;43319;-72
2023/01/23 10:06:00;;;;;;;2.30;2.30;;;16.10;63.70;;;;;;5103325;27;43865;-71
2023/01/23 10:08:31;;;;;;;2.43;2.33;;;16.10;63.70;;;;;;5106541;27;43432;-71
2023/01/23 10:10:59;;;;;;;2.13;2.07;;;16.00;63.70;;;;;;5102197;27;43429;-72
2023/01/23 10:13:47;;;;;;;2.20;2.20;;;16.10;63.90;;;;;;5100628;27;43514;-71
2023/01/23 10:16:42;;;;;;;2.43;2.33;;;16.10;63.80;;;;;;5102260;27;43922;-72
2023/01/23 10:19:23;;;;;;;2.20;2.20;;;16.30;63.30;;;;;;5098188;27;43378;-71
2023/01/23 10:21:53;;;;;;;2.40;2.33;;;16.30;62.90;;;;;;5098342;27;43974;-71
2023/01/23 10:24:32;;;;;;;2.10;2.10;;;16.30;62.90;;;;;;5087268;27;43598;-71
2023/01/23 10:27:17;;;;;;;2.43;2.37;;;16.30;63.10;;;;;;5089651;27;43852;-71
2023/01/23 10:29:46;;;;;;;2.57;2.47;;;16.20;63.30;;;;;;5099910;27;43904;-72
2023/01/23 10:32:21;;;;;;;2.10;2.10;;;16.20;63.10;;;;;;5085938;27;43477;-71
2023/01/23 10:34:53;;;;;;;2.27;2.27;;;16.20;63.20;;;;;;5102432;27;43414;-72
2023/01/23 10:37:25;;;;;;;2.03;1.93;;;16.20;63.30;;;;;;5080878;27;45868;-71
2023/01/23 10:39:54;;;;;;;2.20;2.20;;;16.10;63.30;;;;;;5101354;27;43460;-71
2023/01/23 10:42:23;;;;;;;2.50;2.40;;;16.10;63.50;;;;;;5094526;27;43401;-71
2023/01/23 10:44:51;;;;;;;2.30;2.23;;;16.10;63.50;;;;;;5099628;27;43461;-70
2023/01/23 10:47:24;;;;;;;2.20;2.20;;;16.10;63.70;;;;;;5099218;27;43775;-72
2023/01/23 10:49:53;;;;;;;2.07;1.97;;;16.10;63.60;;;;;;5100453;27;43339;-70
2023/01/23 10:52:32;;;;;;;2.17;2.17;;;16.10;63.60;;;;;;5077531;28;43405;-70
2023/01/23 10:55:00;;;;;;;2.00;2.00;;;16.10;63.60;;;;;;5096801;27;43434;-72
2023/01/23 10:57:29;;;;;;;2.13;2.13;;;16.10;63.70;;;;;;5100865;27;44219;-71
2023/01/23 10:59:59;;;;;;;2.10;2.10;;;16.10;63.70;;;;;;5098139;27;43431;-72
2023/01/23 11:02:29;;;;;;;2.20;2.10;;;16.00;63.80;;;;;;5083910;27;43414;-71
2023/01/23 11:04:57;;;;;;;2.17;2.07;;;16.10;64.10;;;;;;5098437;27;43452;-71
2023/01/23 11:07:26;;;;;;;2.03;2.00;;;16.10;63.80;;;;;;5099710;27;43864;-71
2023/01/23 11:09:55;;;;;;;2.00;2.00;;;16.20;63.30;;;;;;5105425;27;43475;-71
2023/01/23 11:12:24;;;;;;;2.27;2.27;;;16.20;63.10;;;;;;5096678;27;43427;-71
2023/01/23 11:14:52;;;;;;;1.90;1.90;;;16.20;63.20;;;;;;5101754;27;43463;-71
2023/01/23 11:17:22;;;;;;;2.40;2.30;;;16.20;63.30;;;;;;5100308;27;43975;-69
2023/01/23 11:19:53;;;;;;;2.10;2.10;;;16.20;63.40;;;;;;5099760;27;43516;-71
2023/01/23 11:22:27;;;;;;;2.03;2.03;;;16.10;63.30;;;;;;5107272;27;43897;-71
2023/01/23 11:24:55;;;;;;;2.20;2.10;;;16.10;63.20;;;;;;5085484;27;44273;-71
2023/01/23 11:27:25;;;;;;;2.37;2.37;;;16.10;63.40;;;;;;5101986;27;43851;-71
2023/01/23 11:29:58;;;;;;;2.10;2.10;;;16.10;63.50;;;;;;5104776;27;44035;-71
2023/01/23 11:32:26;;;;;;;2.23;2.23;;;16.10;63.50;;;;;;5104903;27;43542;-72
2023/01/23 11:35:00;;;;;;;2.17;2.17;;;16.10;63.60;;;;;;5101732;27;44020;-71
2023/01/23 11:37:30;;;;;;;2.17;2.17;;;16.00;63.80;;;;;;5105005;27;43852;-71
2023/01/23 11:40:00;;;;;;;2.10;2.10;;;16.00;63.80;;;;;;5096012;27;43485;-71
2023/01/23 11:42:28;;;;;;;2.00;2.00;;;16.20;63.60;;;;;;5101686;27;43378;-70
2023/01/23 11:44:56;;;;;;;2.27;2.20;;;16.20;63.10;;;;;;5098434;27;44102;-72
2023/01/23 11:47:43;;;;;;;2.00;2.00;;;16.20;63.00;;;;;;5102586;27;43932;-70
2023/01/23 11:50:36;;;;;;;2.00;2.00;;;16.20;63.10;;;;;;5096311;27;43896;-72
2023/01/23 11:53:22;;;;;;;2.13;2.13;;;16.20;63.30;;;;;;5100068;27;43415;-70
2023/01/23 11:56:42;;;;;;;2.13;2.13;;;16.10;63.50;;;;;;5077745;27;43469;-70
2023/01/23 11:59:51;;;;;;;2.17;2.17;;;16.10;63.40;;;;;;5093172;27;43769;-70
2023/01/23 12:02:41;;;;;;;1.93;1.93;;;16.10;63.50;;;;;;5011640;28;43456;-71
2023/01/23 12:05:42;;;;;;;2.33;2.23;;;16.10;63.50;;;;;;5083634;27;43424;-71
2023/01/23 12:08:17;;;;;;;2.00;2.00;;;16.00;63.50;;;;;;5092071;27;43457;-70
2023/01/23 12:10:49;;;;;;;2.10;2.10;;;16.00;63.60;;;;;;5082561;27;46571;-71
2023/01/23 12:13:32;;;;;;;1.93;1.93;;;16.00;63.70;;;;;;5102909;27;43926;-70
2023/01/23 12:16:04;;;;;;;1.90;1.90;;;16.10;63.70;;;;;;5099514;27;43675;-71
2023/01/23 12:18:35;;;;;;;2.33;2.23;;;16.00;63.70;;;;;;5088039;27;43606;-71
2023/01/23 12:21:11;;;;;;;1.83;1.83;;;16.00;63.80;;;;;;5101233;27;43663;-71
2023/01/23 12:23:53;;;;;;;2.27;2.17;;;16.00;63.80;;;;;;5099960;27;43542;-72
2023/01/23 12:26:22;;;;;;;1.77;1.77;;;16.00;63.80;;;;;;5089208;27;43390;-71
2023/01/23 12:29:03;;;;;;;1.93;1.93;;;16.00;64.10;;;;;;5107018;27;43731;-72
2023/01/23 12:31:39;;;;;;;2.10;2.10;;;16.00;64.00;;;;;;5099403;27;43906;-72
2023/01/23 12:34:19;;;;;;;1.97;1.97;;;16.10;63.60;;;;;;5097881;27;43396;-71
2023/01/23 12:36:59;;;;;;;1.80;1.80;;;16.20;63.30;;;;;;5101868;27;43438;-71
2023/01/23 12:39:54;;;;;;;1.90;1.90;;;16.20;63.30;;;;;;5097410;27;43545;-71
2023/01/23 12:42:24;;;;;;;1.93;1.93;;;16.10;63.30;;;;;;5092538;27;43910;-71
2023/01/23 12:44:56;;;;;;;2.13;2.13;;;16.10;63.40;;;;;;5101956;27;43418;-71
2023/01/23 12:47:25;;;;;;;2.00;2.00;;;16.10;63.60;;;;;;5107026;27;43479;-70
2023/01/23 12:49:55;;;;;;;1.93;1.93;;;16.10;63.50;;;;;;5099197;27;44209;-71
2023/01/23 12:52:27;;;;;;;2.00;2.00;;;16.10;63.50;;;;;;5081028;27;45946;-70
2023/01/23 12:54:57;;;;;;;1.90;1.90;;;16.10;63.50;;;;;;5097081;27;43370;-71
2023/01/23 13:00:37;;;;;;;2.10;2.00;;;16.00;63.50;;;;;;5106564;27;43456;-72
2023/01/23 13:03:17;;;;;;;1.90;1.90;;;16.00;63.70;;;;;;5102194;27;44065;-71
2023/01/23 13:05:55;;;;;;;2.10;2.10;;;16.00;63.90;;;;;;5099927;27;43378;-72
2023/01/23 13:08:27;;;;;;;1.90;1.90;;;16.10;63.70;;;;;;5102860;27;43414;-71
2023/01/23 13:13:51;;;;;;;2.10;2.10;;;16.20;63.00;;;;;;5096615;27;44015;-72
2023/01/23 13:16:20;;;;;;;2.03;2.03;;;16.20;63.10;;;;;;5099450;27;43474;-70
2023/01/23 13:27:50;;;;;;;2.00;2.00;;;16.10;63.30;;;;;;5100419;27;43990;-72
2023/01/23 13:30:37;;;;;;;2.07;2.07;;;16.10;63.40;;;;;;5043161;27;44037;-71